createdAt,value
2023-07-24T00:01:30.189Z,16.40
2023-07-24T00:06:32.772Z,16.30
2023-07-24T00:11:35.185Z,16.30
2023-07-24T00:16:37.498Z,16.30
2023-07-24T00:21:39.775Z,16.20
2023-07-24T00:26:42.078Z,16.20
2023-07-24T00:31:44.323Z,16.20
2023-07-24T00:36:46.673Z,16.30
2023-07-24T00:41:48.848Z,16.20
2023-07-24T00:46:51.688Z,16.30
2023-07-24T00:51:56.438Z,16.30
2023-07-24T00:57:02.518Z,16.30
2023-07-24T01:02:05.010Z,16.30
2023-07-24T01:07:07.239Z,16.30
2023-07-24T01:13:06.108Z,16.20
2023-07-24T01:18:11.486Z,16.10
2023-07-24T01:23:22.461Z,16.10
2023-07-24T01:28:24.700Z,16.10
2023-07-24T01:33:27.838Z,16.20
2023-07-24T01:38:32.355Z,16.20
2023-07-24T01:43:35.832Z,16.20
2023-07-24T01:48:38.001Z,16.30
2023-07-24T01:53:40.568Z,16.30
2023-07-24T01:58:42.696Z,16.30
2023-07-24T02:03:45.014Z,16.40
2023-07-24T02:08:50.136Z,16.30
2023-07-24T02:13:52.371Z,16.20
2023-07-24T02:18:54.761Z,16.30
2023-07-24T02:23:56.970Z,16.30
2023-07-24T02:28:59.199Z,16.30
2023-07-24T02:34:01.407Z,16.30
2023-07-24T02:39:03.745Z,16.20
2023-07-24T02:44:05.998Z,16.20
2023-07-24T02:49:08.875Z,16.20
2023-07-24T02:54:11.061Z,16.20
2023-07-24T02:59:13.303Z,16.10
2023-07-24T03:04:15.517Z,16.10
2023-07-24T03:09:17.774Z,16.10
2023-07-24T03:14:19.984Z,16.10
2023-07-24T03:19:22.256Z,16.10
2023-07-24T03:24:24.628Z,16.10
2023-07-24T03:29:27.353Z,16.10
2023-07-24T03:34:29.537Z,16.10
2023-07-24T03:39:31.887Z,16.10
2023-07-24T03:44:34.117Z,16.10
2023-07-24T03:49:36.279Z,16.10
2023-07-24T03:54:39.177Z,16.10
2023-07-24T03:59:41.380Z,16.10
2023-07-24T04:04:43.649Z,16.10
2023-07-24T04:09:45.821Z,16.20
2023-07-24T04:14:49.971Z,16.20
2023-07-24T04:19:52.138Z,16.20
2023-07-24T04:24:54.353Z,16.20
2023-07-24T04:29:56.596Z,16.20
2023-07-24T04:34:58.729Z,16.20
2023-07-24T04:40:00.897Z,16.10
2023-07-24T04:45:03.552Z,16.10
2023-07-24T04:50:06.861Z,16.20
2023-07-24T04:55:10.255Z,16.20
2023-07-24T05:00:12.922Z,16.20
2023-07-24T05:05:15.155Z,16.20
2023-07-24T05:10:17.427Z,16.30
2023-07-24T05:15:19.644Z,16.30
2023-07-24T05:20:21.856Z,16.40
2023-07-24T05:25:24.038Z,16.40
2023-07-24T05:30:26.227Z,16.50
2023-07-24T05:35:28.625Z,16.50
2023-07-24T05:40:30.893Z,16.60
2023-07-24T05:45:33.118Z,16.70
2023-07-24T05:50:35.308Z,16.80
2023-07-24T05:55:37.485Z,16.90
2023-07-24T06:00:39.767Z,17.00
2023-07-24T06:05:42.040Z,17.10
2023-07-24T06:10:44.264Z,17.20
2023-07-24T06:15:49.986Z,17.20
2023-07-24T06:20:55.861Z,17.30
2023-07-24T06:25:58.209Z,17.40
2023-07-24T06:31:00.368Z,17.40
2023-07-24T06:36:02.507Z,17.40
2023-07-24T06:41:04.746Z,17.30
2023-07-24T06:46:06.986Z,17.40
2023-07-24T06:51:09.280Z,17.40
2023-07-24T06:56:11.582Z,17.50
2023-07-24T07:01:13.800Z,17.80
2023-07-24T07:11:21.083Z,17.90
2023-07-24T07:16:23.314Z,18.00
2023-07-24T07:21:25.621Z,17.90
2023-07-24T07:26:28.464Z,18.00
2023-07-24T07:31:30.978Z,18.20
2023-07-24T07:36:33.266Z,18.20
2023-07-24T07:41:35.615Z,18.10
2023-07-24T07:46:37.823Z,17.90
2023-07-24T07:51:40.020Z,17.60
2023-07-24T07:56:42.208Z,17.50
2023-07-24T08:01:46.466Z,17.80
2023-07-24T08:06:48.633Z,18.10
2023-07-24T08:11:51.827Z,18.30
2023-07-24T08:16:54.882Z,18.80
2023-07-24T08:21:57.191Z,19.00
2023-07-24T08:26:59.358Z,21.30
2023-07-24T08:32:01.704Z,22.30
2023-07-24T08:37:04.071Z,22.10
2023-07-24T08:42:10.718Z,21.70
2023-07-24T08:47:13.563Z,21.90
2023-07-24T08:52:30.745Z,21.90
2023-07-24T08:57:38.167Z,21.00
2023-07-24T09:02:40.402Z,20.90
2023-07-24T09:07:43.018Z,20.30
2023-07-24T09:12:45.625Z,20.40
2023-07-24T09:17:53.074Z,20.30
2023-07-24T09:23:14.125Z,20.30
2023-07-24T09:28:18.632Z,19.90
2023-07-24T09:33:20.930Z,19.80
2023-07-24T09:38:23.257Z,20.70
2023-07-24T09:43:39.739Z,21.50
2023-07-24T09:49:07.684Z,21.80
2023-07-24T09:54:17.323Z,21.10
2023-07-24T09:59:20.844Z,20.80
2023-07-24T10:04:25.728Z,20.70
2023-07-24T10:09:30.601Z,20.40
2023-07-24T10:14:33.532Z,20.50
2023-07-24T10:19:44.941Z,20.70
2023-07-24T10:24:48.117Z,20.90
2023-07-24T10:30:00.379Z,20.60
2023-07-24T10:35:10.104Z,21.60
2023-07-24T10:40:22.520Z,21.60
2023-07-24T10:45:24.932Z,21.40
2023-07-24T10:50:37.930Z,20.50
2023-07-24T10:55:40.302Z,20.20
2023-07-24T11:00:43.969Z,19.90
2023-07-24T11:05:47.924Z,20.30
2023-07-24T11:10:55.647Z,20.10
2023-07-24T11:16:08.968Z,20.10
2023-07-24T11:21:13.903Z,19.80
2023-07-24T11:26:16.974Z,19.30
2023-07-24T11:31:22.392Z,19.50
2023-07-24T11:36:25.130Z,19.40
2023-07-24T11:41:27.621Z,19.10
2023-07-24T11:46:32.999Z,18.90
2023-07-24T11:51:38.163Z,19.10
2023-07-24T11:56:40.393Z,19.50
2023-07-24T12:01:52.880Z,19.70
2023-07-24T12:06:55.120Z,19.80
2023-07-24T12:11:59.977Z,20.20
2023-07-24T12:17:10.904Z,20.50
2023-07-24T12:22:13.654Z,20.00
2023-07-24T12:27:15.886Z,19.40
2023-07-24T12:32:18.604Z,19.20
2023-07-24T12:37:21.369Z,19.30
2023-07-24T12:42:24.526Z,19.70
2023-07-24T12:47:26.680Z,20.30
2023-07-24T12:52:30.898Z,20.30
2023-07-24T12:57:33.228Z,20.20
2023-07-24T13:02:35.920Z,20.30
2023-07-24T13:07:38.096Z,19.90
2023-07-24T13:12:40.428Z,19.70
2023-07-24T13:17:43.486Z,19.50
2023-07-24T13:22:48.124Z,19.50
2023-07-24T13:27:51.506Z,19.10
2023-07-24T13:32:53.806Z,18.80
2023-07-24T13:38:04.890Z,19.20
2023-07-24T13:43:07.435Z,19.00
2023-07-24T13:48:09.621Z,18.90
2023-07-24T13:53:13.208Z,18.90
2023-07-24T13:58:15.770Z,18.70
2023-07-24T14:03:18.062Z,18.80
2023-07-24T14:08:20.269Z,18.50
2023-07-24T14:13:22.434Z,18.50
2023-07-24T14:18:24.643Z,18.60
2023-07-24T14:23:26.809Z,18.80
2023-07-24T14:28:29.016Z,18.70
2023-07-24T14:33:31.376Z,18.90
2023-07-24T14:38:33.602Z,19.20
2023-07-24T14:43:35.811Z,19.10
2023-07-24T14:48:38.033Z,19.30
2023-07-24T14:53:40.250Z,19.30
2023-07-24T14:58:46.253Z,19.00
2023-07-24T15:03:48.650Z,18.90
2023-07-24T15:08:56.777Z,18.90
2023-07-24T15:13:59.120Z,19.10
2023-07-24T15:19:01.292Z,19.10
2023-07-24T15:24:03.601Z,18.80
2023-07-24T15:29:05.792Z,18.90
2023-07-24T15:34:08.456Z,19.00
2023-07-24T15:39:10.684Z,18.90
2023-07-24T15:44:12.826Z,18.80
2023-07-24T15:49:15.253Z,18.90
2023-07-24T15:54:17.522Z,18.90
2023-07-24T15:59:19.686Z,18.80
2023-07-24T16:04:22.799Z,18.50
2023-07-24T16:09:25.721Z,18.00
2023-07-24T16:14:27.877Z,17.80
2023-07-24T16:19:30.195Z,17.40
2023-07-24T16:24:32.430Z,17.20
2023-07-24T16:29:35.595Z,17.00
2023-07-24T16:34:37.852Z,17.00
2023-07-24T16:39:40.378Z,16.80
2023-07-24T16:44:42.533Z,16.70
2023-07-24T16:49:44.830Z,16.50
2023-07-24T16:54:47.395Z,16.40
2023-07-24T16:59:49.848Z,16.40
2023-07-24T17:04:52.017Z,16.30
2023-07-24T17:09:54.238Z,16.30
2023-07-24T17:14:56.663Z,16.20
2023-07-24T17:19:58.778Z,16.10
2023-07-24T17:25:01.068Z,16.10
2023-07-24T17:30:04.243Z,16.00
2023-07-24T17:35:08.238Z,15.90
2023-07-24T17:40:10.920Z,15.80
2023-07-24T17:45:15.820Z,15.70
2023-07-24T17:50:18.304Z,15.70
2023-07-24T17:55:23.729Z,15.80
2023-07-24T18:00:45.695Z,15.80
2023-07-24T18:06:02.321Z,15.70
2023-07-24T18:11:11.191Z,15.70
2023-07-24T18:16:19.402Z,15.60
2023-07-24T18:21:21.742Z,15.50
2023-07-24T18:26:28.440Z,15.50
2023-07-24T18:31:33.284Z,15.50
2023-07-24T18:36:35.981Z,15.40
2023-07-24T18:41:38.218Z,15.30
2023-07-24T18:46:40.434Z,15.30
2023-07-24T18:51:42.606Z,15.30
2023-07-24T18:56:45.236Z,15.30
2023-07-24T19:01:48.212Z,15.20
2023-07-24T19:06:50.574Z,14.90
2023-07-24T19:11:59.252Z,14.90
2023-07-24T19:17:01.457Z,14.90
2023-07-24T19:22:04.696Z,14.90
2023-07-24T19:27:07.557Z,14.90
2023-07-24T19:32:09.782Z,14.80
2023-07-24T19:37:12.251Z,14.80
2023-07-24T19:42:14.502Z,14.90
2023-07-24T19:47:16.829Z,14.90
2023-07-24T19:52:38.397Z,14.90
2023-07-24T19:57:40.753Z,15.00
2023-07-24T20:02:43.337Z,14.90
2023-07-24T20:07:45.638Z,15.00
2023-07-24T20:12:47.854Z,15.00
2023-07-24T20:17:50.117Z,15.00
2023-07-24T20:22:52.326Z,15.00
2023-07-24T20:27:54.508Z,15.10
2023-07-24T20:32:56.881Z,15.10
2023-07-24T20:38:00.033Z,15.20
2023-07-24T20:43:03.913Z,15.20
2023-07-24T20:48:06.256Z,15.30
2023-07-24T20:53:08.582Z,15.30
2023-07-24T20:58:11.496Z,15.30
2023-07-24T21:03:13.704Z,15.30
2023-07-24T21:08:16.632Z,15.20
2023-07-24T21:13:19.295Z,15.20
2023-07-24T21:18:24.186Z,15.20
2023-07-24T21:23:26.910Z,15.10
2023-07-24T21:28:29.115Z,15.00
2023-07-24T21:33:31.291Z,15.00
2023-07-24T21:38:33.867Z,14.90
2023-07-24T21:43:36.142Z,14.90
2023-07-24T21:48:38.403Z,14.80
2023-07-24T21:53:40.676Z,14.80
2023-07-24T21:58:42.916Z,14.70
2023-07-24T22:03:45.116Z,14.70
2023-07-24T22:08:47.321Z,14.60
2023-07-24T22:13:49.530Z,14.60
2023-07-24T22:18:51.740Z,14.60
2023-07-24T22:23:54.814Z,14.50
2023-07-24T22:28:57.066Z,14.60
2023-07-24T22:33:59.304Z,14.60
2023-07-24T22:39:03.501Z,14.60
2023-07-24T22:44:07.051Z,14.60
2023-07-24T22:49:09.200Z,14.60
2023-07-24T22:54:11.389Z,14.60
2023-07-24T22:59:25.587Z,14.60
2023-07-24T23:04:27.925Z,14.70
2023-07-24T23:09:30.860Z,14.60
2023-07-24T23:14:33.089Z,14.60
2023-07-24T23:19:35.324Z,14.50
2023-07-24T23:24:37.575Z,14.50
2023-07-24T23:29:39.766Z,14.50
2023-07-24T23:34:41.928Z,14.40
2023-07-24T23:39:44.106Z,14.40
2023-07-24T23:44:46.246Z,14.40
2023-07-24T23:49:48.424Z,14.30
2023-07-24T23:54:50.603Z,14.40
2023-07-24T23:59:52.796Z,14.40
